createdAt,value
2023-04-09T00:01:09.480Z,67.41
2023-04-09T00:03:39.456Z,65.16
2023-04-09T00:06:07.866Z,60.26
2023-04-09T00:08:36.228Z,57.22
2023-04-09T00:11:04.888Z,57.48
2023-04-09T00:13:39.032Z,58.35
2023-04-09T00:16:08.862Z,59.64
2023-04-09T00:18:37.352Z,60.41
2023-04-09T00:21:05.996Z,61.26
2023-04-09T00:23:34.893Z,63.71
2023-04-09T00:26:03.305Z,68.90
2023-04-09T00:28:31.580Z,67.17
2023-04-09T00:30:59.818Z,64.34
2023-04-09T00:33:28.136Z,59.36
2023-04-09T00:35:57.037Z,55.80
2023-04-09T00:38:25.170Z,56.13
2023-04-09T00:40:53.435Z,57.11
2023-04-09T00:43:21.852Z,58.20
2023-04-09T00:45:50.221Z,59.22
2023-04-09T00:48:18.573Z,60.19
2023-04-09T00:50:46.781Z,61.06
2023-04-09T00:53:16.254Z,64.21
2023-04-09T00:55:46.001Z,68.18
2023-04-09T00:58:14.949Z,65.88
2023-04-09T01:00:43.022Z,63.40
2023-04-09T01:03:11.435Z,58.69
2023-04-09T01:05:50.526Z,55.35
2023-04-09T01:08:47.188Z,55.64
2023-04-09T01:11:32.310Z,56.58
2023-04-09T01:14:19.769Z,57.95
2023-04-09T01:16:56.009Z,59.05
2023-04-09T01:19:44.682Z,60.24
2023-04-09T01:22:35.719Z,60.97
2023-04-09T01:25:15.895Z,65.93
2023-04-09T01:28:19.769Z,68.39
2023-04-09T01:30:51.228Z,66.44
2023-04-09T01:33:21.497Z,60.46
2023-04-09T01:35:51.135Z,56.36
2023-04-09T01:38:22.003Z,56.65
2023-04-09T01:40:51.102Z,57.63
2023-04-09T01:43:20.367Z,58.80
2023-04-09T01:45:48.999Z,59.82
2023-04-09T01:48:17.078Z,60.73
2023-04-09T01:50:45.809Z,64.07
2023-04-09T01:53:14.391Z,67.58
2023-04-09T01:55:42.380Z,65.54
2023-04-09T01:58:10.429Z,63.06
2023-04-09T02:00:43.820Z,58.22
2023-04-09T02:03:22.302Z,55.12
2023-04-09T02:05:57.724Z,55.63
2023-04-09T02:08:28.314Z,56.85
2023-04-09T02:10:59.250Z,58.20
2023-04-09T02:13:30.030Z,59.26
2023-04-09T02:16:00.310Z,60.23
2023-04-09T02:18:30.336Z,61.17
2023-04-09T02:20:59.587Z,64.84
2023-04-09T02:23:27.809Z,67.40
2023-04-09T02:25:56.691Z,65.76
2023-04-09T02:28:24.648Z,63.36
2023-04-09T02:30:52.939Z,59.34
2023-04-09T02:33:21.103Z,56.15
2023-04-09T02:35:49.131Z,56.52
2023-04-09T02:38:17.355Z,57.71
2023-04-09T02:40:45.851Z,58.89
2023-04-09T02:43:13.776Z,59.93
2023-04-09T02:45:41.975Z,60.94
2023-04-09T02:48:09.979Z,64.28
2023-04-09T02:50:37.936Z,68.06
2023-04-09T02:53:06.091Z,65.80
2023-04-09T02:55:34.072Z,62.02
2023-04-09T02:58:02.125Z,58.49
2023-04-09T03:00:30.135Z,55.52
2023-04-09T03:02:58.487Z,56.07
2023-04-09T03:05:26.959Z,57.54
2023-04-09T03:07:55.133Z,58.43
2023-04-09T03:10:23.203Z,59.51
2023-04-09T03:12:51.483Z,60.44
2023-04-09T03:15:19.556Z,63.53
2023-04-09T03:17:47.455Z,67.26
2023-04-09T03:20:15.619Z,65.24
2023-04-09T03:22:43.761Z,62.55
2023-04-09T03:25:21.357Z,58.43
2023-04-09T03:27:50.185Z,56.09
2023-04-09T03:30:23.845Z,56.27
2023-04-09T03:32:51.883Z,57.43
2023-04-09T03:35:21.837Z,58.52
2023-04-09T03:37:50.925Z,59.70
2023-04-09T03:40:19.007Z,60.77
2023-04-09T03:42:47.210Z,64.00
2023-04-09T03:45:16.475Z,67.22
2023-04-09T03:47:46.994Z,65.75
2023-04-09T03:50:15.211Z,63.17
2023-04-09T03:52:52.487Z,58.87
2023-04-09T03:55:21.246Z,55.99
2023-04-09T03:57:49.362Z,56.67
2023-04-09T04:00:19.172Z,57.85
2023-04-09T04:03:07.014Z,58.77
2023-04-09T04:05:50.055Z,59.96
2023-04-09T04:08:18.365Z,63.42
2023-04-09T04:10:46.943Z,66.86
2023-04-09T04:13:16.220Z,65.46
2023-04-09T04:15:50.062Z,63.69
2023-04-09T04:18:21.605Z,59.01
2023-04-09T04:20:52.128Z,55.67
2023-04-09T04:23:20.430Z,56.13
2023-04-09T04:26:11.250Z,57.04
2023-04-09T04:28:40.955Z,58.58
2023-04-09T04:31:11.821Z,59.74
2023-04-09T04:33:42.812Z,60.80
2023-04-09T04:36:14.871Z,64.42
2023-04-09T04:38:46.333Z,68.39
2023-04-09T04:41:21.980Z,66.12
2023-04-09T04:43:57.531Z,63.31
2023-04-09T04:46:25.714Z,58.21
2023-04-09T04:48:54.117Z,54.86
2023-04-09T04:51:22.947Z,55.39
2023-04-09T04:54:01.589Z,56.55
2023-04-09T04:56:30.095Z,58.49
2023-04-09T04:59:09.175Z,59.01
2023-04-09T05:01:47.778Z,59.98
2023-04-09T05:04:16.480Z,63.04
2023-04-09T05:06:44.461Z,66.18
2023-04-09T05:09:14.979Z,64.41
2023-04-09T05:11:49.720Z,63.05
2023-04-09T05:14:21.768Z,58.92
2023-04-09T05:16:50.065Z,55.89
2023-04-09T05:19:19.799Z,56.38
2023-04-09T05:21:48.236Z,57.49
2023-04-09T05:24:21.124Z,58.75
2023-04-09T05:26:49.223Z,59.84
2023-04-09T05:29:17.984Z,60.74
2023-04-09T05:31:46.415Z,64.15
2023-04-09T05:34:47.518Z,66.98
2023-04-09T05:37:16.496Z,62.78
2023-04-09T05:39:47.719Z,62.12
2023-04-09T05:42:16.428Z,58.26
2023-04-09T05:45:12.677Z,55.36
2023-04-09T05:47:47.521Z,56.17
2023-04-09T05:50:21.044Z,58.30
2023-04-09T05:52:50.599Z,58.71
2023-04-09T05:55:18.883Z,60.84
2023-04-09T05:57:53.498Z,60.69
2023-04-09T06:00:22.192Z,63.39
2023-04-09T06:02:51.053Z,64.87
2023-04-09T06:05:19.123Z,64.04
2023-04-09T06:07:48.760Z,58.73
2023-04-09T06:10:16.927Z,55.13
2023-04-09T06:12:45.558Z,55.59
2023-04-09T06:15:13.578Z,56.71
2023-04-09T06:17:41.605Z,57.50
2023-04-09T06:20:10.581Z,58.27
2023-04-09T06:22:38.512Z,59.24
2023-04-09T06:25:07.413Z,59.95
2023-04-09T06:27:35.809Z,60.94
2023-04-09T06:30:04.153Z,63.58
2023-04-09T06:32:33.766Z,65.67
2023-04-09T06:35:10.818Z,63.72
2023-04-09T06:37:39.431Z,58.56
2023-04-09T06:40:08.538Z,54.88
2023-04-09T06:42:36.794Z,55.01
2023-04-09T06:45:16.487Z,56.55
2023-04-09T06:47:45.672Z,58.34
2023-04-09T06:50:14.015Z,60.38
2023-04-09T06:52:42.230Z,59.13
2023-04-09T06:55:10.892Z,58.80
2023-04-09T06:57:39.468Z,58.60
2023-04-09T07:00:08.586Z,59.46
2023-04-09T07:02:37.901Z,59.44
2023-04-09T07:05:06.768Z,60.20
2023-04-09T07:07:34.762Z,59.90
2023-04-09T07:10:03.026Z,59.96
2023-04-09T07:12:32.950Z,60.33
2023-04-09T07:15:03.043Z,61.17
2023-04-09T07:17:31.827Z,60.18
2023-04-09T07:20:00.275Z,60.15
2023-04-09T07:22:29.482Z,59.25
2023-04-09T07:24:57.762Z,61.03
2023-04-09T07:27:27.997Z,59.39
2023-04-09T07:29:57.816Z,58.76
2023-04-09T07:32:28.555Z,58.65
2023-04-09T07:34:57.684Z,60.36
2023-04-09T07:37:27.327Z,59.46
2023-04-09T07:39:55.742Z,58.25
2023-04-09T07:42:24.089Z,59.06
2023-04-09T07:44:52.075Z,59.46
2023-04-09T07:47:20.077Z,59.05
2023-04-09T07:49:48.196Z,58.58
2023-04-09T07:52:16.474Z,58.36
2023-04-09T07:54:44.453Z,57.89
2023-04-09T07:57:12.433Z,58.70
2023-04-09T07:59:41.142Z,58.45
2023-04-09T08:02:09.454Z,57.04
2023-04-09T08:04:38.504Z,56.24
2023-04-09T08:07:06.676Z,55.78
2023-04-09T08:09:34.617Z,55.24
2023-04-09T08:12:02.853Z,54.81
2023-04-09T08:14:30.878Z,54.82
2023-04-09T08:17:00.363Z,53.95
2023-04-09T08:19:28.548Z,54.51
2023-04-09T08:21:56.938Z,54.55
2023-04-09T08:24:25.085Z,55.02
2023-04-09T08:26:53.274Z,54.12
2023-04-09T08:29:21.744Z,53.73
2023-04-09T08:31:49.967Z,55.02
2023-04-09T08:34:21.305Z,55.26
2023-04-09T08:36:50.337Z,54.77
2023-04-09T08:39:21.707Z,53.96
2023-04-09T08:41:52.044Z,54.23
2023-04-09T08:44:21.992Z,54.59
2023-04-09T08:46:51.348Z,54.57
2023-04-09T08:49:19.829Z,54.62
2023-04-09T08:51:51.072Z,55.01
2023-04-09T08:54:22.012Z,54.01
2023-04-09T08:56:50.001Z,54.46
2023-04-09T08:59:21.206Z,54.86
2023-04-09T09:01:54.586Z,54.14
2023-04-09T09:04:22.888Z,54.56
2023-04-09T09:06:51.370Z,54.69
2023-04-09T09:09:19.762Z,55.05
2023-04-09T09:11:51.183Z,54.97
2023-04-09T09:14:20.295Z,54.84
2023-04-09T09:16:58.015Z,52.25
2023-04-09T09:19:26.603Z,50.07
2023-04-09T09:22:06.730Z,52.73
2023-04-09T09:24:48.358Z,51.75
2023-04-09T09:27:40.816Z,50.44
2023-04-09T09:30:11.041Z,50.27
2023-04-09T09:32:39.460Z,52.13
2023-04-09T09:35:08.293Z,51.68
2023-04-09T09:37:36.569Z,50.50
2023-04-09T09:40:05.940Z,51.28
2023-04-09T09:42:34.215Z,52.16
2023-04-09T09:45:17.648Z,52.94
2023-04-09T09:47:46.795Z,51.60
2023-04-09T09:50:15.026Z,51.87
2023-04-09T09:52:46.668Z,52.02
2023-04-09T09:55:17.504Z,51.44
2023-04-09T09:57:48.610Z,52.19
2023-04-09T10:00:18.618Z,52.24
2023-04-09T10:02:57.679Z,52.11
2023-04-09T10:05:27.884Z,50.60
2023-04-09T10:07:58.261Z,50.16
2023-04-09T10:10:27.886Z,49.56
2023-04-09T10:12:56.737Z,50.76
2023-04-09T10:15:26.408Z,52.00
2023-04-09T10:17:56.260Z,50.97
2023-04-09T10:20:42.141Z,51.46
2023-04-09T10:23:19.838Z,51.06
2023-04-09T10:25:47.865Z,50.73
2023-04-09T10:28:18.861Z,50.35
2023-04-09T10:30:46.986Z,50.07
2023-04-09T10:33:17.617Z,50.30
2023-04-09T10:35:49.035Z,48.00
2023-04-09T10:38:16.995Z,48.68
2023-04-09T10:40:53.498Z,48.16
2023-04-09T10:43:22.437Z,48.59
2023-04-09T10:45:54.558Z,48.60
2023-04-09T10:48:26.262Z,48.94
2023-04-09T10:50:55.558Z,48.87
2023-04-09T10:53:25.718Z,49.12
2023-04-09T10:55:54.564Z,49.05
2023-04-09T10:58:22.561Z,49.04
2023-04-09T11:00:51.837Z,48.50
2023-04-09T11:03:29.040Z,48.98
2023-04-09T11:06:11.814Z,48.35
2023-04-09T11:08:39.906Z,47.63
2023-04-09T11:11:08.091Z,47.70
2023-04-09T11:13:36.376Z,47.87
2023-04-09T11:16:07.360Z,47.79
2023-04-09T11:18:37.317Z,47.77
2023-04-09T11:21:06.002Z,47.81
2023-04-09T11:23:34.479Z,47.93
2023-04-09T11:26:03.003Z,47.67
2023-04-09T11:28:31.279Z,46.99
2023-04-09T11:30:59.311Z,45.52
2023-04-09T11:33:34.533Z,46.40
2023-04-09T11:36:05.901Z,46.58
2023-04-09T11:38:34.007Z,46.46
2023-04-09T11:41:02.363Z,47.03
2023-04-09T11:43:30.406Z,47.52
2023-04-09T11:45:59.634Z,48.01
2023-04-09T11:48:28.187Z,47.86
2023-04-09T11:50:57.492Z,48.06
2023-04-09T11:53:31.201Z,47.82
2023-04-09T11:55:59.773Z,47.27
2023-04-09T11:58:28.261Z,48.17
2023-04-09T12:00:58.976Z,46.87
2023-04-09T12:03:33.460Z,46.97
2023-04-09T12:06:03.792Z,46.86
2023-04-09T12:08:35.154Z,45.92
2023-04-09T12:11:10.781Z,46.05
2023-04-09T12:13:44.767Z,46.57
2023-04-09T12:16:13.928Z,46.53
2023-04-09T12:18:42.053Z,46.34
2023-04-09T12:21:10.505Z,46.18
2023-04-09T12:23:38.775Z,45.98
2023-04-09T12:26:06.850Z,45.72
2023-04-09T12:28:36.052Z,45.57
2023-04-09T12:31:04.114Z,45.82
2023-04-09T12:33:32.598Z,45.77
2023-04-09T12:36:00.790Z,44.50
2023-04-09T12:38:29.049Z,43.56
2023-04-09T12:40:57.259Z,44.78
2023-04-09T12:43:25.593Z,44.86
2023-04-09T12:45:53.601Z,44.58
2023-04-09T12:48:21.650Z,43.17
2023-04-09T12:50:49.717Z,43.30
2023-04-09T12:53:17.887Z,43.54
2023-04-09T12:55:46.043Z,44.13
2023-04-09T12:58:13.954Z,43.96
2023-04-09T13:00:42.012Z,44.49
2023-04-09T13:03:10.282Z,44.68
2023-04-09T13:05:38.455Z,44.66
2023-04-09T13:08:07.051Z,44.67
2023-04-09T13:10:35.919Z,44.84
2023-04-09T13:13:03.986Z,44.86
2023-04-09T13:15:32.471Z,45.28
2023-04-09T13:18:00.549Z,45.57
2023-04-09T13:20:28.498Z,45.19
2023-04-09T13:22:57.086Z,44.89
2023-04-09T13:25:25.161Z,45.21
2023-04-09T13:27:53.229Z,44.78
2023-04-09T13:30:24.376Z,45.07
2023-04-09T13:32:52.430Z,44.72
2023-04-09T13:35:20.627Z,44.65
2023-04-09T13:37:48.785Z,44.11
2023-04-09T13:40:17.286Z,44.12
2023-04-09T13:42:45.548Z,44.67
2023-04-09T13:45:13.753Z,44.22
2023-04-09T13:47:43.222Z,44.12
2023-04-09T13:50:13.260Z,44.38
2023-04-09T13:52:41.309Z,44.24
2023-04-09T13:55:09.792Z,44.03
2023-04-09T13:57:37.712Z,43.14
2023-04-09T14:00:09.277Z,43.21
2023-04-09T14:02:37.336Z,43.27
2023-04-09T14:05:06.165Z,43.45
2023-04-09T14:07:34.211Z,43.37
2023-04-09T14:10:02.930Z,43.53
2023-04-09T14:12:31.304Z,43.39
2023-04-09T14:14:59.289Z,42.40
2023-04-09T14:17:27.404Z,42.70
2023-04-09T14:19:55.519Z,42.82
2023-04-09T14:22:23.499Z,42.92
2023-04-09T14:24:51.670Z,42.89
2023-04-09T14:27:20.088Z,43.05
2023-04-09T14:29:48.922Z,43.38
2023-04-09T14:32:17.537Z,43.04
2023-04-09T14:34:46.861Z,41.89
2023-04-09T14:37:14.889Z,43.50
2023-04-09T14:39:42.962Z,43.59
2023-04-09T14:42:11.124Z,43.76
2023-04-09T14:44:39.195Z,43.65
2023-04-09T14:47:07.365Z,43.48
2023-04-09T14:49:35.445Z,43.50
2023-04-09T14:52:03.888Z,43.89
2023-04-09T14:54:33.369Z,44.22
2023-04-09T14:57:03.685Z,44.31
2023-04-09T14:59:31.741Z,44.36
2023-04-09T15:01:59.925Z,44.71
2023-04-09T15:04:28.369Z,44.98
2023-04-09T15:06:56.445Z,45.10
2023-04-09T15:09:24.770Z,45.26
2023-04-09T15:11:54.348Z,45.16
2023-04-09T15:14:23.843Z,44.96
2023-04-09T15:16:55.980Z,45.15
2023-04-09T15:19:24.181Z,45.21
2023-04-09T15:21:52.154Z,45.03
2023-04-09T15:24:20.726Z,45.66
2023-04-09T15:26:49.877Z,46.73
2023-04-09T15:29:19.056Z,47.13
2023-04-09T15:31:47.334Z,47.43
2023-04-09T15:34:16.183Z,47.73
2023-04-09T15:36:46.122Z,48.32
2023-04-09T15:39:14.232Z,48.99
2023-04-09T15:41:42.156Z,49.94
2023-04-09T15:44:10.506Z,50.20
2023-04-09T15:46:38.803Z,50.97
2023-04-09T15:49:07.066Z,50.93
2023-04-09T15:51:35.038Z,51.60
2023-04-09T15:54:03.006Z,52.00
2023-04-09T15:56:31.185Z,52.16
2023-04-09T15:59:02.222Z,52.81
2023-04-09T16:01:30.861Z,52.48
2023-04-09T16:03:59.134Z,52.43
2023-04-09T16:06:27.664Z,52.90
2023-04-09T16:08:56.835Z,52.59
2023-04-09T16:11:24.890Z,52.49
2023-04-09T16:13:54.517Z,52.59
2023-04-09T16:16:24.124Z,52.49
2023-04-09T16:18:52.985Z,52.69
2023-04-09T16:21:21.751Z,52.47
2023-04-09T16:23:49.808Z,52.78
2023-04-09T16:26:17.746Z,52.67
2023-04-09T16:28:45.885Z,53.14
2023-04-09T16:31:14.220Z,53.09
2023-04-09T16:33:42.135Z,53.06
2023-04-09T16:36:10.420Z,53.20
2023-04-09T16:38:38.544Z,53.37
2023-04-09T16:41:06.612Z,53.50
2023-04-09T16:43:34.679Z,53.61
2023-04-09T16:46:02.867Z,53.71
2023-04-09T16:48:31.372Z,53.93
2023-04-09T16:50:59.292Z,54.06
2023-04-09T16:53:27.945Z,54.24
2023-04-09T16:55:55.914Z,54.37
2023-04-09T16:58:24.050Z,54.55
2023-04-09T17:00:52.353Z,54.68
2023-04-09T17:03:20.833Z,54.74
2023-04-09T17:05:49.515Z,55.02
2023-04-09T17:08:21.847Z,55.11
2023-04-09T17:11:02.369Z,55.10
2023-04-09T17:13:34.314Z,55.21
2023-04-09T17:16:02.970Z,55.53
2023-04-09T17:18:31.112Z,55.82
2023-04-09T17:20:59.880Z,55.59
2023-04-09T17:23:28.001Z,55.58
2023-04-09T17:25:57.147Z,56.08
2023-04-09T17:28:25.822Z,56.10
2023-04-09T17:30:53.919Z,56.09
2023-04-09T17:33:23.368Z,56.26
2023-04-09T17:35:51.539Z,56.43
2023-04-09T17:38:21.753Z,56.65
2023-04-09T17:40:49.940Z,56.82
2023-04-09T17:43:18.608Z,56.94
2023-04-09T17:45:49.354Z,57.32
2023-04-09T17:48:18.353Z,57.62
2023-04-09T17:50:47.364Z,57.60
2023-04-09T17:53:15.359Z,57.82
2023-04-09T17:55:48.874Z,57.96
2023-04-09T17:58:17.359Z,58.16
2023-04-09T18:00:45.528Z,57.84
2023-04-09T18:03:13.727Z,58.08
2023-04-09T18:05:42.754Z,57.96
2023-04-09T18:08:10.867Z,58.18
2023-04-09T18:10:38.904Z,58.31
2023-04-09T18:13:07.057Z,58.58
2023-04-09T18:15:35.107Z,58.56
2023-04-09T18:18:03.181Z,58.71
2023-04-09T18:20:31.123Z,59.28
2023-04-09T18:22:59.116Z,59.44
2023-04-09T18:25:28.796Z,59.17
2023-04-09T18:27:57.383Z,59.35
2023-04-09T18:30:26.523Z,59.63
2023-04-09T18:32:54.590Z,59.76
2023-04-09T18:35:22.945Z,59.68
2023-04-09T18:37:51.369Z,59.72
2023-04-09T18:40:20.405Z,59.81
2023-04-09T18:42:52.621Z,59.75
2023-04-09T18:45:20.758Z,59.84
2023-04-09T18:47:48.852Z,60.07
2023-04-09T18:50:18.833Z,60.07
2023-04-09T18:52:46.897Z,60.48
2023-04-09T18:55:15.904Z,60.65
2023-04-09T18:57:44.504Z,60.84
2023-04-09T19:00:13.167Z,60.98
2023-04-09T19:02:41.574Z,61.00
2023-04-09T19:05:10.578Z,61.38
2023-04-09T19:07:38.931Z,61.18
2023-04-09T19:10:07.647Z,61.97
2023-04-09T19:12:35.711Z,61.84
2023-04-09T19:15:05.107Z,61.97
2023-04-09T19:17:34.238Z,61.73
2023-04-09T19:20:03.368Z,61.67
2023-04-09T19:22:31.543Z,61.92
2023-04-09T19:24:59.549Z,61.78
2023-04-09T19:27:27.649Z,61.93
2023-04-09T19:29:59.069Z,64.13
2023-04-09T19:32:27.741Z,68.20
2023-04-09T19:34:56.051Z,67.28
2023-04-09T19:37:28.336Z,62.48
2023-04-09T19:39:57.978Z,58.50
2023-04-09T19:42:28.870Z,54.95
2023-04-09T19:44:56.978Z,54.96
2023-04-09T19:47:25.093Z,55.63
2023-04-09T19:49:56.395Z,56.43
2023-04-09T19:52:24.431Z,56.94
2023-04-09T19:54:57.083Z,57.29
2023-04-09T19:57:26.662Z,58.23
2023-04-09T19:59:55.624Z,59.07
2023-04-09T20:02:24.188Z,60.92
2023-04-09T20:04:52.606Z,60.34
2023-04-09T20:07:20.890Z,61.13
2023-04-09T20:09:49.793Z,61.31
2023-04-09T20:12:17.840Z,63.86
2023-04-09T20:14:49.002Z,67.06
2023-04-09T20:17:19.970Z,65.52
2023-04-09T20:19:47.907Z,61.21
2023-04-09T20:22:17.088Z,57.07
2023-04-09T20:24:45.018Z,56.72
2023-04-09T20:27:13.024Z,57.31
2023-04-09T20:29:42.221Z,57.74
2023-04-09T20:32:10.435Z,58.74
2023-04-09T20:34:38.465Z,59.46
2023-04-09T20:37:06.845Z,60.29
2023-04-09T20:39:34.818Z,61.28
2023-04-09T20:42:02.784Z,61.19
2023-04-09T20:44:33.806Z,61.41
2023-04-09T20:47:02.956Z,61.77
2023-04-09T20:49:30.995Z,64.24
2023-04-09T20:51:59.710Z,67.87
2023-04-09T20:54:29.633Z,66.46
2023-04-09T20:56:57.965Z,62.62
2023-04-09T20:59:26.572Z,59.01
2023-04-09T21:01:57.360Z,55.72
2023-04-09T21:04:26.336Z,56.27
2023-04-09T21:06:54.753Z,56.78
2023-04-09T21:09:22.828Z,57.25
2023-04-09T21:11:51.202Z,57.91
2023-04-09T21:14:19.499Z,59.41
2023-04-09T21:16:47.784Z,60.15
2023-04-09T21:19:16.239Z,60.38
2023-04-09T21:21:44.182Z,61.63
2023-04-09T21:24:12.179Z,64.26
2023-04-09T21:26:51.176Z,67.81
2023-04-09T21:29:23.895Z,66.54
2023-04-09T21:31:51.862Z,63.71
2023-04-09T21:34:20.035Z,58.70
2023-04-09T21:36:48.734Z,55.16
2023-04-09T21:39:16.932Z,55.44
2023-04-09T21:41:44.976Z,56.16
2023-04-09T21:44:13.673Z,56.99
2023-04-09T21:46:41.951Z,57.88
2023-04-09T21:49:10.108Z,58.77
2023-04-09T21:51:40.128Z,59.66
2023-04-09T21:54:09.869Z,60.57
2023-04-09T21:56:39.552Z,61.03
2023-04-09T21:59:07.845Z,61.60
2023-04-09T22:01:36.091Z,64.98
2023-04-09T22:04:04.568Z,68.91
2023-04-09T22:06:33.375Z,67.17
2023-04-09T22:09:02.169Z,64.40
2023-04-09T22:11:30.746Z,59.30
2023-04-09T22:13:59.106Z,55.74
2023-04-09T22:16:27.420Z,55.70
2023-04-09T22:18:56.638Z,56.54
2023-04-09T22:21:25.485Z,57.50
2023-04-09T22:23:53.646Z,58.53
2023-04-09T22:26:22.229Z,59.40
2023-04-09T22:28:50.521Z,60.14
2023-04-09T22:31:18.552Z,60.90
2023-04-09T22:33:46.644Z,63.90
2023-04-09T22:36:14.938Z,68.93
2023-04-09T22:38:42.990Z,66.66
2023-04-09T22:41:11.064Z,63.66
2023-04-09T22:43:39.177Z,58.63
2023-04-09T22:46:07.411Z,55.05
2023-04-09T22:48:40.825Z,55.29
2023-04-09T22:51:13.895Z,56.19
2023-04-09T22:53:42.088Z,57.22
2023-04-09T22:56:10.215Z,58.17
2023-04-09T22:58:39.036Z,59.07
2023-04-09T23:01:07.819Z,59.92
2023-04-09T23:03:36.121Z,60.69
2023-04-09T23:06:04.383Z,61.53
2023-04-09T23:08:32.434Z,64.70
2023-04-09T23:11:00.434Z,68.14
2023-04-09T23:13:28.378Z,66.17
2023-04-09T23:15:56.389Z,64.43
2023-04-09T23:18:24.415Z,59.99
2023-04-09T23:20:52.483Z,56.31
2023-04-09T23:23:20.503Z,56.29
2023-04-09T23:25:48.436Z,57.19
2023-04-09T23:28:16.721Z,58.15
2023-04-09T23:30:44.668Z,59.25
2023-04-09T23:33:12.758Z,60.22
2023-04-09T23:35:41.213Z,60.91
2023-04-09T23:38:09.609Z,64.06
2023-04-09T23:40:37.561Z,67.92
2023-04-09T23:43:05.539Z,65.93
2023-04-09T23:45:33.528Z,64.20
2023-04-09T23:48:02.547Z,59.96
2023-04-09T23:50:31.026Z,56.24
2023-04-09T23:53:01.204Z,56.04
2023-04-09T23:55:29.368Z,56.86
2023-04-09T23:57:57.444Z,58.05
